Terminal Aerodrome Forecast
Issued by NWS Boston, MA

Home | Current Version | Previous Version | Text Only | Print | Product List | Glossary On
Versions: 1 2 3 4 5 6 7 8 9 10 11 12 13 14 15 16 17 18 19 20 21 22 23 24 25 26 27 28 29 30 31 32 33 34 35 36 37 38 39 40 41 42
000
FTUS41 KBOX 042330
TAFBOS
TAF
KBOS 042330Z 0500/0606 25010KT P6SM OVC130
     FM050500 27006KT 3SM -SN BKN015 OVC050
     FM051100 31010KT P6SM OVC050
     FM051600 32009KT P6SM OVC090
     FM060300 33008KT P6SM SCT250=

USA.gov is the U.S. government's official web portal to all federal, state and local government web resources and services.